sensor_id;sensor_type;location;lat;lon;timestamp;pressure;altitude;pressure_sealevel;temperature;humidity
48216;BME280;34005;48.844;10.098;2023-03-02T00:01:37;96732.72;;;2.84;58.84
48216;BME280;34005;48.844;10.098;2023-03-02T00:04:10;96721.06;;;2.90;59.03
48216;BME280;34005;48.844;10.098;2023-03-02T00:06:39;96727.19;;;2.99;58.81
48216;BME280;34005;48.844;10.098;2023-03-02T00:09:06;96726.50;;;2.97;58.06
48216;BME280;34005;48.844;10.098;2023-03-02T00:11:36;96729.47;;;2.92;58.89
48216;BME280;34005;48.844;10.098;2023-03-02T00:14:04;96735.72;;;2.89;58.38
48216;BME280;34005;48.844;10.098;2023-03-02T00:16:32;96734.34;;;2.85;58.36
48216;BME280;34005;48.844;10.098;2023-03-02T00:19:00;96732.72;;;2.84;58.62
48216;BME280;34005;48.844;10.098;2023-03-02T00:21:28;96731.34;;;2.80;58.35
48216;BME280;34005;48.844;10.098;2023-03-02T00:23:57;96736.75;;;2.77;58.47
48216;BME280;34005;48.844;10.098;2023-03-02T00:26:24;96726.72;;;2.74;58.83
48216;BME280;34005;48.844;10.098;2023-03-02T00:28:53;96733.75;;;2.72;58.88
48216;BME280;34005;48.844;10.098;2023-03-02T00:31:21;96729.09;;;2.66;58.74
48216;BME280;34005;48.844;10.098;2023-03-02T00:33:48;96723.53;;;2.61;58.83
48216;BME280;34005;48.844;10.098;2023-03-02T00:36:17;96717.69;;;2.59;59.08
48216;BME280;34005;48.844;10.098;2023-03-02T00:38:46;96719.59;;;2.57;59.03
48216;BME280;34005;48.844;10.098;2023-03-02T00:41:15;96715.63;;;2.53;59.79
48216;BME280;34005;48.844;10.098;2023-03-02T00:43:42;96718.63;;;2.58;59.60
48216;BME280;34005;48.844;10.098;2023-03-02T00:46:13;96715.00;;;2.60;59.38
48216;BME280;34005;48.844;10.098;2023-03-02T00:48:41;96727.88;;;2.60;59.38
48216;BME280;34005;48.844;10.098;2023-03-02T00:51:09;96717.44;;;2.62;59.82
48216;BME280;34005;48.844;10.098;2023-03-02T00:53:37;96712.97;;;2.64;59.31
48216;BME280;34005;48.844;10.098;2023-03-02T00:56:06;96709.59;;;2.63;59.49
48216;BME280;34005;48.844;10.098;2023-03-02T00:58:33;96715.69;;;2.62;59.13
48216;BME280;34005;48.844;10.098;2023-03-02T01:01:05;96711.59;;;2.60;59.92
48216;BME280;34005;48.844;10.098;2023-03-02T01:03:34;96711.59;;;2.60;59.24
48216;BME280;34005;48.844;10.098;2023-03-02T01:06:03;96708.47;;;2.56;59.51
48216;BME280;34005;48.844;10.098;2023-03-02T01:08:31;96706.03;;;2.55;59.63
48216;BME280;34005;48.844;10.098;2023-03-02T01:10:59;96706.28;;;2.52;59.36
48216;BME280;34005;48.844;10.098;2023-03-02T01:13:27;96688.63;;;2.47;59.47
48216;BME280;34005;48.844;10.098;2023-03-02T01:16:01;96697.69;;;2.41;59.97
48216;BME280;34005;48.844;10.098;2023-03-02T01:18:29;96690.38;;;2.37;59.82
48216;BME280;34005;48.844;10.098;2023-03-02T01:21:03;96683.03;;;2.32;60.25
48216;BME280;34005;48.844;10.098;2023-03-02T01:23:31;96682.06;;;2.33;59.72
48216;BME280;34005;48.844;10.098;2023-03-02T01:25:59;96681.84;;;2.36;60.31
48216;BME280;34005;48.844;10.098;2023-03-02T01:28:27;96684.41;;;2.36;60.18
48216;BME280;34005;48.844;10.098;2023-03-02T01:30:54;96674.34;;;2.33;60.28
48216;BME280;34005;48.844;10.098;2023-03-02T01:33:22;96678.41;;;2.36;60.03
48216;BME280;34005;48.844;10.098;2023-03-02T01:35:49;96672.59;;;2.34;59.77
48216;BME280;34005;48.844;10.098;2023-03-02T01:38:18;96669.19;;;2.33;60.44
48216;BME280;34005;48.844;10.098;2023-03-02T01:40:46;96670.97;;;2.33;60.42
48216;BME280;34005;48.844;10.098;2023-03-02T01:43:15;96673.53;;;2.33;60.41
48216;BME280;34005;48.844;10.098;2023-03-02T01:45:46;96669.78;;;2.37;60.79
48216;BME280;34005;48.844;10.098;2023-03-02T01:48:15;96663.13;;;2.34;60.33
48216;BME280;34005;48.844;10.098;2023-03-02T01:50:44;96654.94;;;2.29;60.34
48216;BME280;34005;48.844;10.098;2023-03-02T01:53:13;96659.56;;;2.25;60.28
48216;BME280;34005;48.844;10.098;2023-03-02T01:55:43;96656.41;;;2.22;60.37
48216;BME280;34005;48.844;10.098;2023-03-02T01:58:13;96650.69;;;2.18;60.48
48216;BME280;34005;48.844;10.098;2023-03-02T02:00:42;96647.81;;;2.12;60.54
48216;BME280;34005;48.844;10.098;2023-03-02T02:03:13;96646.44;;;2.08;60.93
48216;BME280;34005;48.844;10.098;2023-03-02T02:05:54;96637.00;;;2.08;61.46
48216;BME280;34005;48.844;10.098;2023-03-02T02:08:25;96631.84;;;2.08;61.02
48216;BME280;34005;48.844;10.098;2023-03-02T02:10:54;96633.34;;;2.11;61.28
48216;BME280;34005;48.844;10.098;2023-03-02T02:13:22;96632.16;;;2.15;60.84
48216;BME280;34005;48.844;10.098;2023-03-02T02:15:50;96627.69;;;2.17;60.63
48216;BME280;34005;48.844;10.098;2023-03-02T02:18:18;96625.13;;;2.17;60.66
48216;BME280;34005;48.844;10.098;2023-03-02T02:20:46;96631.47;;;2.13;60.93
48216;BME280;34005;48.844;10.098;2023-03-02T02:23:24;96619.78;;;2.09;61.46
48216;BME280;34005;48.844;10.098;2023-03-02T02:26:09;96618.28;;;2.06;61.98
48216;BME280;34005;48.844;10.098;2023-03-02T02:28:41;96615.56;;;2.08;61.24
48216;BME280;34005;48.844;10.098;2023-03-02T02:31:13;96609.38;;;2.10;61.68
48216;BME280;34005;48.844;10.098;2023-03-02T02:33:44;96612.88;;;2.09;61.41
48216;BME280;34005;48.844;10.098;2023-03-02T02:36:15;96609.38;;;2.10;61.81
48216;BME280;34005;48.844;10.098;2023-03-02T02:38:46;96613.97;;;2.16;61.86
48216;BME280;34005;48.844;10.098;2023-03-02T02:41:19;96607.78;;;2.19;61.75
48216;BME280;34005;48.844;10.098;2023-03-02T02:43:49;96603.44;;;2.19;61.63
48216;BME280;34005;48.844;10.098;2023-03-02T02:46:17;96596.41;;;2.21;61.42
48216;BME280;34005;48.844;10.098;2023-03-02T02:48:44;96609.97;;;2.23;61.27
48216;BME280;34005;48.844;10.098;2023-03-02T02:51:16;96605.75;;;2.22;61.46
48216;BME280;34005;48.844;10.098;2023-03-02T02:53:47;96604.38;;;2.18;61.61
48216;BME280;34005;48.844;10.098;2023-03-02T02:56:18;96592.59;;;2.16;61.36
48216;BME280;34005;48.844;10.098;2023-03-02T02:58:47;96602.47;;;2.11;61.55
48216;BME280;34005;48.844;10.098;2023-03-02T03:01:18;96602.00;;;2.05;61.69
48216;BME280;34005;48.844;10.098;2023-03-02T03:03:52;96609.31;;;2.00;61.69
48216;BME280;34005;48.844;10.098;2023-03-02T03:06:23;96607.31;;;2.04;61.85
48216;BME280;34005;48.844;10.098;2023-03-02T03:08:59;96610.00;;;2.02;62.36
48216;BME280;34005;48.844;10.098;2023-03-02T03:11:30;96602.56;;;1.99;62.20
48216;BME280;34005;48.844;10.098;2023-03-02T03:14:02;96599.81;;;2.01;62.14
48216;BME280;34005;48.844;10.098;2023-03-02T03:16:32;96597.25;;;2.01;61.80
48216;BME280;34005;48.844;10.098;2023-03-02T03:19:05;96604.84;;;2.02;62.38
48216;BME280;34005;48.844;10.098;2023-03-02T03:21:33;96609.31;;;2.00;61.89
48216;BME280;34005;48.844;10.098;2023-03-02T03:24:01;96600.91;;;1.98;61.86
48216;BME280;34005;48.844;10.098;2023-03-02T03:26:30;96600.91;;;1.98;62.36
48216;BME280;34005;48.844;10.098;2023-03-02T03:28:58;96603.25;;;2.01;61.76
48216;BME280;34005;48.844;10.098;2023-03-02T03:31:27;96597.41;;;1.99;61.91
48216;BME280;34005;48.844;10.098;2023-03-02T03:33:55;96599.53;;;1.94;61.97
48216;BME280;34005;48.844;10.098;2023-03-02T03:36:26;96601.69;;;1.89;62.10
48216;BME280;34005;48.844;10.098;2023-03-02T03:38:54;96610.59;;;1.85;62.13
48216;BME280;34005;48.844;10.098;2023-03-02T03:41:22;96607.59;;;1.80;62.06
48216;BME280;34005;48.844;10.098;2023-03-02T03:43:51;96607.13;;;1.75;62.58
48216;BME280;34005;48.844;10.098;2023-03-02T03:46:19;96610.66;;;1.74;62.31
48216;BME280;34005;48.844;10.098;2023-03-02T03:48:47;96598.06;;;1.71;62.58
48216;BME280;34005;48.844;10.098;2023-03-02T03:51:14;96611.84;;;1.70;62.75
48216;BME280;34005;48.844;10.098;2023-03-02T03:53:42;96607.41;;;1.72;62.49
48216;BME280;34005;48.844;10.098;2023-03-02T03:56:10;96602.53;;;1.69;62.59
48216;BME280;34005;48.844;10.098;2023-03-02T03:58:38;96606.13;;;1.66;62.73
48216;BME280;34005;48.844;10.098;2023-03-02T04:01:07;96595.03;;;1.65;62.74
48216;BME280;34005;48.844;10.098;2023-03-02T04:03:35;96603.81;;;1.63;62.83
48216;BME280;34005;48.844;10.098;2023-03-02T04:06:02;96603.94;;;1.61;62.95
48216;BME280;34005;48.844;10.098;2023-03-02T04:08:31;96610.97;;;1.59;63.15
48216;BME280;34005;48.844;10.098;2023-03-02T04:10:59;96609.78;;;1.63;62.93
48216;BME280;34005;48.844;10.098;2023-03-02T04:13:26;96612.13;;;1.67;63.04
48216;BME280;34005;48.844;10.098;2023-03-02T04:15:54;96606.97;;;1.67;62.98
48216;BME280;34005;48.844;10.098;2023-03-02T04:18:23;96613.19;;;1.64;63.37
48216;BME280;34005;48.844;10.098;2023-03-02T04:20:50;96612.50;;;1.62;62.96
48216;BME280;34005;48.844;10.098;2023-03-02T04:23:18;96614.50;;;1.58;63.16
48216;BME280;34005;48.844;10.098;2023-03-02T04:25:45;96612.72;;;1.59;63.33
48216;BME280;34005;48.844;10.098;2023-03-02T04:28:13;96612.72;;;1.59;63.50
48216;BME280;34005;48.844;10.098;2023-03-02T04:30:43;96613.41;;;1.61;63.37
48216;BME280;34005;48.844;10.098;2023-03-02T04:33:10;96606.41;;;1.63;63.31
48216;BME280;34005;48.844;10.098;2023-03-02T04:35:39;96603.94;;;1.61;63.21
48216;BME280;34005;48.844;10.098;2023-03-02T04:38:07;96605.81;;;1.59;63.16
48216;BME280;34005;48.844;10.098;2023-03-02T04:40:34;96606.09;;;1.56;63.56
48216;BME280;34005;48.844;10.098;2023-03-02T04:43:02;96611.34;;;1.55;63.27
48216;BME280;34005;48.844;10.098;2023-03-02T04:45:29;96608.91;;;1.53;63.70
48216;BME280;34005;48.844;10.098;2023-03-02T04:47:57;96606.19;;;1.55;63.80
48216;BME280;34005;48.844;10.098;2023-03-02T04:50:25;96608.53;;;1.58;63.69
48216;BME280;34005;48.844;10.098;2023-03-02T04:52:54;96610.97;;;1.59;63.66
48216;BME280;34005;48.844;10.098;2023-03-02T04:55:24;96603.13;;;1.61;63.75
48216;BME280;34005;48.844;10.098;2023-03-02T04:57:52;96604.78;;;1.62;63.75
48216;BME280;34005;48.844;10.098;2023-03-02T05:00:20;96604.25;;;1.68;63.58
48216;BME280;34005;48.844;10.098;2023-03-02T05:02:48;96606.44;;;1.73;63.48
48216;BME280;34005;48.844;10.098;2023-03-02T05:05:18;96604.81;;;1.72;63.58
48216;BME280;34005;48.844;10.098;2023-03-02T05:07:46;96594.53;;;1.72;63.50
48216;BME280;34005;48.844;10.098;2023-03-02T05:10:16;96598.63;;;1.74;63.62
48216;BME280;34005;48.844;10.098;2023-03-02T05:12:44;96594.28;;;1.75;63.18
48216;BME280;34005;48.844;10.098;2023-03-02T05:15:25;96592.66;;;1.74;63.55
48216;BME280;34005;48.844;10.098;2023-03-02T05:17:53;96596.84;;;1.75;63.75
48216;BME280;34005;48.844;10.098;2023-03-02T05:20:22;96597.53;;;1.77;63.67
48216;BME280;34005;48.844;10.098;2023-03-02T05:22:53;96598.91;;;1.81;63.36
48216;BME280;34005;48.844;10.098;2023-03-02T05:25:23;96598.91;;;1.81;63.70
48216;BME280;34005;48.844;10.098;2023-03-02T05:27:51;96597.16;;;1.81;63.65
48216;BME280;34005;48.844;10.098;2023-03-02T05:30:20;96596.91;;;1.84;64.59
48216;BME280;34005;48.844;10.098;2023-03-02T05:32:48;96599.09;;;1.89;64.33
48216;BME280;34005;48.844;10.098;2023-03-02T05:35:16;96590.31;;;1.92;63.51
48216;BME280;34005;48.844;10.098;2023-03-02T05:37:44;96596.53;;;1.89;63.65
48216;BME280;34005;48.844;10.098;2023-03-02T05:40:14;96593.28;;;1.87;63.77
48216;BME280;34005;48.844;10.098;2023-03-02T05:42:43;96595.56;;;1.90;64.24
48216;BME280;34005;48.844;10.098;2023-03-02T05:45:17;96603.19;;;1.92;63.61
48216;BME280;34005;48.844;10.098;2023-03-02T05:47:44;96595.47;;;1.92;63.86
48216;BME280;34005;48.844;10.098;2023-03-02T05:50:13;96601.41;;;1.92;63.64
48216;BME280;34005;48.844;10.098;2023-03-02T05:52:41;96604.94;;;1.91;63.58
48216;BME280;34005;48.844;10.098;2023-03-02T05:55:11;96600.88;;;1.89;63.37
48216;BME280;34005;48.844;10.098;2023-03-02T05:57:39;96609.50;;;1.88;63.37
48216;BME280;34005;48.844;10.098;2023-03-02T06:00:10;96611.28;;;1.87;63.54
48216;BME280;34005;48.844;10.098;2023-03-02T06:02:39;96605.31;;;1.87;63.38
48216;BME280;34005;48.844;10.098;2023-03-02T06:05:09;96605.22;;;1.88;63.46
48216;BME280;34005;48.844;10.098;2023-03-02T06:07:37;96596.81;;;1.86;63.43
48216;BME280;34005;48.844;10.098;2023-03-02T06:10:06;96608.81;;;1.85;63.30
48216;BME280;34005;48.844;10.098;2023-03-02T06:12:34;96616.41;;;1.87;63.67
48216;BME280;34005;48.844;10.098;2023-03-02T06:15:02;96613.34;;;1.93;63.82
48216;BME280;34005;48.844;10.098;2023-03-02T06:17:32;96613.22;;;1.95;63.52
48216;BME280;34005;48.844;10.098;2023-03-02T06:19:59;96615.91;;;1.93;63.78
48216;BME280;34005;48.844;10.098;2023-03-02T06:22:27;96618.50;;;1.93;63.91
48216;BME280;34005;48.844;10.098;2023-03-02T06:24:54;96616.59;;;1.95;63.81
48216;BME280;34005;48.844;10.098;2023-03-02T06:27:22;96620.09;;;1.94;63.56
48216;BME280;34005;48.844;10.098;2023-03-02T06:29:49;96623.63;;;1.93;63.52
48216;BME280;34005;48.844;10.098;2023-03-02T06:32:17;96619.81;;;1.88;63.60
48216;BME280;34005;48.844;10.098;2023-03-02T06:34:47;96621.44;;;1.89;63.97
48216;BME280;34005;48.844;10.098;2023-03-02T06:37:15;96625.53;;;1.91;63.96
48216;BME280;34005;48.844;10.098;2023-03-02T06:39:42;96624.88;;;1.99;63.93
48216;BME280;34005;48.844;10.098;2023-03-02T06:42:10;96626.81;;;2.06;63.77
48216;BME280;34005;48.844;10.098;2023-03-02T06:44:38;96633.34;;;2.11;63.53
48216;BME280;34005;48.844;10.098;2023-03-02T06:47:05;96637.78;;;2.09;64.29
48216;BME280;34005;48.844;10.098;2023-03-02T06:49:33;96635.66;;;2.14;64.49
48216;BME280;34005;48.844;10.098;2023-03-02T06:52:02;96638.28;;;2.23;64.30
48216;BME280;34005;48.844;10.098;2023-03-02T06:54:32;96640.06;;;2.33;64.06
48216;BME280;34005;48.844;10.098;2023-03-02T06:57:00;96630.75;;;2.41;64.53
48216;BME280;34005;48.844;10.098;2023-03-02T06:59:27;96645.59;;;2.59;65.28
48216;BME280;34005;48.844;10.098;2023-03-02T07:01:55;96632.91;;;2.77;63.94
48216;BME280;34005;48.844;10.098;2023-03-02T07:04:22;96644.16;;;2.85;63.19
48216;BME280;34005;48.844;10.098;2023-03-02T07:06:50;96645.41;;;2.91;62.72
48216;BME280;34005;48.844;10.098;2023-03-02T07:09:19;96656.00;;;2.98;62.75
48216;BME280;34005;48.844;10.098;2023-03-02T07:11:47;96650.97;;;3.06;62.33
48216;BME280;34005;48.844;10.098;2023-03-02T07:14:15;96644.34;;;3.13;62.13
48216;BME280;34005;48.844;10.098;2023-03-02T07:16:43;96648.41;;;3.25;62.07
48216;BME280;34005;48.844;10.098;2023-03-02T07:19:11;96664.19;;;3.42;62.23
48216;BME280;34005;48.844;10.098;2023-03-02T07:21:39;96655.47;;;3.62;61.48
48216;BME280;34005;48.844;10.098;2023-03-02T07:24:07;96654.09;;;3.78;60.75
48216;BME280;34005;48.844;10.098;2023-03-02T07:26:36;96662.91;;;3.95;60.47
48216;BME280;34005;48.844;10.098;2023-03-02T07:29:04;96657.16;;;4.10;59.92
48216;BME280;34005;48.844;10.098;2023-03-02T07:31:31;96664.06;;;4.20;59.83
48216;BME280;34005;48.844;10.098;2023-03-02T07:33:59;96661.84;;;4.34;59.47
48216;BME280;34005;48.844;10.098;2023-03-02T07:36:27;96665.28;;;4.63;59.00
48216;BME280;34005;48.844;10.098;2023-03-02T07:38:54;96668.13;;;4.97;57.80
48216;BME280;34005;48.844;10.098;2023-03-02T07:41:22;96668.31;;;5.49;56.94
48216;BME280;34005;48.844;10.098;2023-03-02T07:43:51;96678.66;;;6.64;54.62
48216;BME280;34005;48.844;10.098;2023-03-02T07:46:19;96676.28;;;7.13;52.23
48216;BME280;34005;48.844;10.098;2023-03-02T07:48:47;96670.16;;;7.63;51.40
48216;BME280;34005;48.844;10.098;2023-03-02T07:51:14;96673.06;;;8.34;49.45
48216;BME280;34005;48.844;10.098;2023-03-02T07:53:42;96677.25;;;8.35;49.63
48216;BME280;34005;48.844;10.098;2023-03-02T07:56:10;96681.31;;;8.62;49.13
48216;BME280;34005;48.844;10.098;2023-03-02T07:58:38;96675.50;;;8.91;48.05
48216;BME280;34005;48.844;10.098;2023-03-02T08:01:07;96678.00;;;9.47;46.79
48216;BME280;34005;48.844;10.098;2023-03-02T08:03:35;96675.00;;;10.34;45.27
48216;BME280;34005;48.844;10.098;2023-03-02T08:06:04;96681.41;;;11.42;42.81
48216;BME280;34005;48.844;10.098;2023-03-02T08:08:32;96678.78;;;12.28;40.99
48216;BME280;34005;48.844;10.098;2023-03-02T08:11:03;96676.78;;;13.00;38.80
48216;BME280;34005;48.844;10.098;2023-03-02T08:13:31;96675.59;;;13.64;38.49
48216;BME280;34005;48.844;10.098;2023-03-02T08:15:59;96674.03;;;14.03;37.15
48216;BME280;34005;48.844;10.098;2023-03-02T08:18:29;96672.19;;;14.43;36.37
48216;BME280;34005;48.844;10.098;2023-03-02T08:20:57;96680.38;;;15.00;36.06
48216;BME280;34005;48.844;10.098;2023-03-02T08:23:25;96681.22;;;15.39;34.92
48216;BME280;34005;48.844;10.098;2023-03-02T08:25:54;96676.91;;;15.90;33.95
48216;BME280;34005;48.844;10.098;2023-03-02T08:28:22;96679.22;;;16.30;32.95
48216;BME280;34005;48.844;10.098;2023-03-02T08:30:56;96672.97;;;16.50;31.76
48216;BME280;34005;48.844;10.098;2023-03-02T08:33:24;96674.38;;;16.71;32.26
48216;BME280;34005;48.844;10.098;2023-03-02T08:35:55;96672.25;;;16.79;31.61
48216;BME280;34005;48.844;10.098;2023-03-02T08:38:23;96661.09;;;16.84;31.91
48216;BME280;34005;48.844;10.098;2023-03-02T08:40:51;96656.75;;;16.89;31.84
48216;BME280;34005;48.844;10.098;2023-03-02T08:43:21;96656.47;;;16.79;31.68
48216;BME280;34005;48.844;10.098;2023-03-02T08:45:50;96659.00;;;16.67;31.93
48216;BME280;34005;48.844;10.098;2023-03-02T08:48:18;96646.03;;;16.66;31.89
48216;BME280;34005;48.844;10.098;2023-03-02T08:50:55;96645.81;;;16.67;31.30
48216;BME280;34005;48.844;10.098;2023-03-02T08:53:23;96646.22;;;16.71;32.10
48216;BME280;34005;48.844;10.098;2023-03-02T08:55:51;96641.66;;;16.60;32.31
48216;BME280;34005;48.844;10.098;2023-03-02T08:58:18;96634.25;;;16.50;33.14
48216;BME280;34005;48.844;10.098;2023-03-02T09:00:46;96653.81;;;16.61;32.71
48216;BME280;34005;48.844;10.098;2023-03-02T09:03:14;96640.72;;;16.73;32.51
48216;BME280;34005;48.844;10.098;2023-03-02T09:05:42;96628.94;;;16.75;32.47
48216;BME280;34005;48.844;10.098;2023-03-02T09:08:11;96633.91;;;16.65;32.35
48216;BME280;34005;48.844;10.098;2023-03-02T09:10:39;96624.97;;;16.66;32.65
48216;BME280;34005;48.844;10.098;2023-03-02T09:13:07;96622.78;;;16.63;33.04
48216;BME280;34005;48.844;10.098;2023-03-02T09:15:35;96630.19;;;16.73;32.56
48216;BME280;34005;48.844;10.098;2023-03-02T09:18:03;96619.66;;;16.73;32.43
48216;BME280;34005;48.844;10.098;2023-03-02T09:20:30;96631.00;;;16.73;33.35
48216;BME280;34005;48.844;10.098;2023-03-02T09:22:59;96627.28;;;16.81;32.56
48216;BME280;34005;48.844;10.098;2023-03-02T09:25:28;96627.47;;;16.79;32.16
48216;BME280;34005;48.844;10.098;2023-03-02T09:27:55;96624.09;;;16.72;32.28
48216;BME280;34005;48.844;10.098;2023-03-02T09:30:23;96624.09;;;16.72;32.45
48216;BME280;34005;48.844;10.098;2023-03-02T09:32:51;96626.53;;;16.74;32.65
48216;BME280;34005;48.844;10.098;2023-03-02T09:35:18;96627.47;;;16.61;33.07
48216;BME280;34005;48.844;10.098;2023-03-02T09:37:46;96628.72;;;16.58;32.67
48216;BME280;34005;48.844;10.098;2023-03-02T09:40:17;96632.88;;;16.66;32.28
48216;BME280;34005;48.844;10.098;2023-03-02T09:43:11;96636.59;;;16.77;31.50
48216;BME280;34005;48.844;10.098;2023-03-02T09:45:51;96639.19;;;16.83;31.62
48216;BME280;34005;48.844;10.098;2023-03-02T09:48:37;96636.47;;;16.90;31.27
48216;BME280;34005;48.844;10.098;2023-03-02T09:51:16;96652.44;;;16.95;31.68
48216;BME280;34005;48.844;10.098;2023-03-02T09:53:52;96643.06;;;16.81;31.25
48216;BME280;34005;48.844;10.098;2023-03-02T09:56:25;96636.59;;;16.77;32.16
48216;BME280;34005;48.844;10.098;2023-03-02T09:58:58;96638.19;;;16.84;31.46
48216;BME280;34005;48.844;10.098;2023-03-02T10:01:33;96641.53;;;16.92;31.59
48216;BME280;34005;48.844;10.098;2023-03-02T10:04:10;96643.66;;;17.01;31.41
48216;BME280;34005;48.844;10.098;2023-03-02T10:06:39;96640.78;;;17.03;31.56
48216;BME280;34005;48.844;10.098;2023-03-02T10:09:08;96644.19;;;16.92;31.70
48216;BME280;34005;48.844;10.098;2023-03-02T10:11:46;96640.81;;;16.84;31.83
48216;BME280;34005;48.844;10.098;2023-03-02T10:14:21;96638.59;;;17.00;31.40
48216;BME280;34005;48.844;10.098;2023-03-02T10:16:54;96642.84;;;17.19;31.38
48216;BME280;34005;48.844;10.098;2023-03-02T10:19:28;96637.41;;;17.14;31.25
48216;BME280;34005;48.844;10.098;2023-03-02T10:22:03;96641.72;;;17.27;31.27
48216;BME280;34005;48.844;10.098;2023-03-02T10:24:39;96636.78;;;17.61;31.42
48216;BME280;34005;48.844;10.098;2023-03-02T10:27:15;96635.84;;;17.97;30.66
48216;BME280;34005;48.844;10.098;2023-03-02T10:29:54;96639.78;;;18.30;30.22
48216;BME280;34005;48.844;10.098;2023-03-02T10:32:26;96630.81;;;18.55;29.94
48216;BME280;34005;48.844;10.098;2023-03-02T10:34:58;96639.75;;;18.77;29.95
48216;BME280;34005;48.844;10.098;2023-03-02T10:37:29;96631.94;;;18.94;29.43
48216;BME280;34005;48.844;10.098;2023-03-02T10:39:56;96631.31;;;19.16;29.36
48216;BME280;34005;48.844;10.098;2023-03-02T10:42:27;96627.66;;;19.33;28.97
48216;BME280;34005;48.844;10.098;2023-03-02T10:45:02;96628.00;;;19.54;29.01
48216;BME280;34005;48.844;10.098;2023-03-02T10:47:34;96632.69;;;19.64;28.36
48216;BME280;34005;48.844;10.098;2023-03-02T10:50:02;96621.63;;;19.67;28.20
48216;BME280;34005;48.844;10.098;2023-03-02T10:52:29;96623.00;;;19.69;28.14
48216;BME280;34005;48.844;10.098;2023-03-02T10:55:01;96619.34;;;19.70;28.03
48216;BME280;34005;48.844;10.098;2023-03-02T10:57:35;96619.97;;;19.78;28.01
48216;BME280;34005;48.844;10.098;2023-03-02T11:00:14;96620.72;;;19.90;28.05
48216;BME280;34005;48.844;10.098;2023-03-02T11:02:50;96623.13;;;20.08;27.54
48216;BME280;34005;48.844;10.098;2023-03-02T11:05:22;96616.06;;;20.14;27.22
48216;BME280;34005;48.844;10.098;2023-03-02T11:07:53;96601.44;;;20.11;27.43
48216;BME280;34005;48.844;10.098;2023-03-02T11:10:23;96606.03;;;20.16;27.80
48216;BME280;34005;48.844;10.098;2023-03-02T11:12:52;96603.44;;;20.38;27.51
48216;BME280;34005;48.844;10.098;2023-03-02T11:15:35;96608.84;;;20.48;27.28
48216;BME280;34005;48.844;10.098;2023-03-02T11:18:12;96604.59;;;20.64;26.81
48216;BME280;34005;48.844;10.098;2023-03-02T11:20:46;96605.75;;;20.95;26.86
48216;BME280;34005;48.844;10.098;2023-03-02T11:23:20;96603.50;;;21.31;27.07
48216;BME280;34005;48.844;10.098;2023-03-02T11:25:52;96605.53;;;21.46;26.02
48216;BME280;34005;48.844;10.098;2023-03-02T11:28:29;96605.38;;;21.36;25.60
48216;BME280;34005;48.844;10.098;2023-03-02T11:31:01;96605.28;;;21.48;26.62
48216;BME280;34005;48.844;10.098;2023-03-02T11:33:35;96612.50;;;21.85;26.37
48216;BME280;34005;48.844;10.098;2023-03-02T11:36:08;96603.22;;;22.19;25.30
48216;BME280;34005;48.844;10.098;2023-03-02T11:38:44;96611.25;;;22.30;24.59
48216;BME280;34005;48.844;10.098;2023-03-02T11:41:23;96605.59;;;22.21;24.58
48216;BME280;34005;48.844;10.098;2023-03-02T11:43:52;96594.50;;;22.24;25.51
48216;BME280;34005;48.844;10.098;2023-03-02T11:46:24;96595.72;;;22.16;24.91
48216;BME280;34005;48.844;10.098;2023-03-02T11:48:54;96596.88;;;22.26;25.38
48216;BME280;34005;48.844;10.098;2023-03-02T11:51:26;96590.09;;;22.45;25.08
48216;BME280;34005;48.844;10.098;2023-03-02T11:53:57;96589.66;;;22.63;24.70
48216;BME280;34005;48.844;10.098;2023-03-02T11:56:28;96583.28;;;22.65;24.70
48216;BME280;34005;48.844;10.098;2023-03-02T11:58:59;96590.22;;;22.76;24.09
48216;BME280;34005;48.844;10.098;2023-03-02T12:01:32;96583.94;;;22.97;24.63
48216;BME280;34005;48.844;10.098;2023-03-02T12:04:07;96583.00;;;23.29;23.80
48216;BME280;34005;48.844;10.098;2023-03-02T12:06:37;96577.69;;;23.44;23.28
48216;BME280;34005;48.844;10.098;2023-03-02T12:09:09;96586.47;;;23.45;23.42
48216;BME280;34005;48.844;10.098;2023-03-02T12:11:39;96583.25;;;23.33;23.30
48216;BME280;34005;48.844;10.098;2023-03-02T12:14:25;96583.47;;;23.06;23.76
48216;BME280;34005;48.844;10.098;2023-03-02T12:17:06;96577.81;;;22.97;24.00
48216;BME280;34005;48.844;10.098;2023-03-02T12:19:41;96573.56;;;22.96;24.07
48216;BME280;34005;48.844;10.098;2023-03-02T12:22:11;96576.63;;;22.67;24.36
48216;BME280;34005;48.844;10.098;2023-03-02T12:24:42;96571.75;;;22.44;24.93
48216;BME280;34005;48.844;10.098;2023-03-02T12:27:24;96563.41;;;22.25;25.25
48216;BME280;34005;48.844;10.098;2023-03-02T12:29:56;96565.31;;;21.97;25.25
48216;BME280;34005;48.844;10.098;2023-03-02T12:32:36;96569.34;;;21.40;25.25
48216;BME280;34005;48.844;10.098;2023-03-02T12:35:11;96568.28;;;20.65;26.69
48216;BME280;34005;48.844;10.098;2023-03-02T12:37:44;96566.09;;;20.01;27.39
48216;BME280;34005;48.844;10.098;2023-03-02T12:40:49;96561.69;;;19.44;28.50
48216;BME280;34005;48.844;10.098;2023-03-02T12:43:27;96563.50;;;19.09;28.96
48216;BME280;34005;48.844;10.098;2023-03-02T12:48:56;96546.47;;;18.65;29.93
48216;BME280;34005;48.844;10.098;2023-03-02T12:51:27;96548.63;;;18.39;30.15
48216;BME280;34005;48.844;10.098;2023-03-02T12:54:02;96551.97;;;18.11;30.29
48216;BME280;34005;48.844;10.098;2023-03-02T12:56:30;96541.22;;;17.89;30.92
48216;BME280;34005;48.844;10.098;2023-03-02T12:58:58;96542.88;;;17.71;31.05
48216;BME280;34005;48.844;10.098;2023-03-02T13:01:27;96536.66;;;17.54;31.54
48216;BME280;34005;48.844;10.098;2023-03-02T13:03:57;96531.34;;;17.30;31.50
48216;BME280;34005;48.844;10.098;2023-03-02T13:06:29;96537.31;;;16.96;32.43
48216;BME280;34005;48.844;10.098;2023-03-02T13:08:57;96541.78;;;16.77;32.81
48216;BME280;34005;48.844;10.098;2023-03-02T13:11:27;96534.53;;;16.72;33.08
48216;BME280;34005;48.844;10.098;2023-03-02T13:13:57;96538.63;;;16.68;32.56